Main page
METAR-TAF:

METAR-TAF

Airports :

Mount Pleasant Municipal Airport

Mount Pleasant, Michigan, United States

latitude: 43-37N, longitude: 084-44W, elevation: 754 ft

Current weather observation

The report was made 18 minutes ago, at 07:55 UTC
Calm wind
Temperature 59°F
Humidity 77%
Pressure 29.82 in. Hg
Visibility: 10 miles
Scattered clouds at a height of 3300 ft
Overcast at a height of 5000 ft

METAR: KMOP 050755Z AUTO 00000KT 10SM SCT033 OVC050 15/11 A2982 RMK AO2 T01520113

Time: 03:13 (08:13 UTC)


TAF: missing

Weather observations and forecasts of more than 4000 airports (METAR and TAF reports).

The available stations are represented by yellow and red dots on the map.

Hover mouse over dot to see the name of the station.

Then click to see weather observations and forecasts.

To change the map : click on the green buttons with a black cross to zoom in, on the green button with a dash to zoom out, or on the green arrows for adjacent maps.


METAR-TAF: